TRA5953 LPPT-GCTS
Flight info
| Callsign | TRA5953 |
|---|---|
| Flight time | 2h 10m |
| Altitude | 35000 |
| Route | ULVOT DCT BEXAL UN866 KONBA |
| Aircraft | B738/M-SDE2E3FGHIRWXY/LB1 |
Departure
| Time | 2026-05-04 06:40 |
|---|---|
| Airport | Lisbon Humberto Delgado Airport (LPPT) |
Arrival
| Time | 2026-05-04 08:50 |
|---|---|
| Airport | Tenerife Sur Airport (GCTS) |
| Time | Latitude | Longitude | Altitude | Speed | Heading |
|---|---|---|---|---|---|
| 2026-05-04 06:20 | 38.77021 | -9.13117 | 353 ft | 0 kts | 73° |
| 2026-05-04 06:31 | 38.77018 | -9.13131 | 357 ft | 4 kts | 82° |
| 2026-05-04 06:31 | 38.77016 | -9.13164 | 357 ft | 2 kts | 79° |
| 2026-05-04 06:32 | 38.77016 | -9.13166 | 356 ft | 1 kts | 79° |
| 2026-05-04 06:36 | 38.76716 | -9.13407 | 353 ft | 20 kts | 217° |
| 2026-05-04 06:37 | 38.76646 | -9.13540 | 351 ft | 21 kts | 257° |
| 2026-05-04 06:37 | 38.76613 | -9.13749 | 350 ft | 26 kts | 261° |
| 2026-05-04 06:37 | 38.76582 | -9.13926 | 349 ft | 19 kts | 257° |
| 2026-05-04 06:37 | 38.76558 | -9.14103 | 345 ft | 19 kts | 271° |
| 2026-05-04 06:38 | 38.76606 | -9.14275 | 349 ft | 22 kts | 295° |
| 2026-05-04 06:38 | 38.76649 | -9.14370 | 335 ft | 8 kts | 334° |
| 2026-05-04 06:40 | 38.82258 | -9.11095 | 1715 ft | 231 kts | 33° |
| 2026-05-04 06:40 | 38.83656 | -9.09883 | 2091 ft | 252 kts | 33° |
| 2026-05-04 06:40 | 38.85182 | -9.08662 | 2824 ft | 261 kts | 30° |
| 2026-05-04 06:40 | 38.86758 | -9.07490 | 3770 ft | 263 kts | 33° |
| 2026-05-04 06:41 | 38.87969 | -9.05749 | 4599 ft | 267 kts | 66° |
| 2026-05-04 06:41 | 38.88278 | -9.03416 | 5456 ft | 270 kts | 97° |
| 2026-05-04 06:41 | 38.87695 | -9.01133 | 6294 ft | 272 kts | 118° |
| 2026-05-04 06:41 | 38.86755 | -8.99005 | 7112 ft | 276 kts | 123° |
| 2026-05-04 06:42 | 38.85391 | -8.97279 | 7875 ft | 280 kts | 152° |
| 2026-05-04 06:42 | 38.83530 | -8.96624 | 8686 ft | 281 kts | 180° |
| 2026-05-04 06:42 | 38.81608 | -8.97063 | 9470 ft | 283 kts | 200° |
| 2026-05-04 06:44 | 38.66744 | -9.05122 | 13141 ft | 363 kts | 203° |
| 2026-05-04 06:44 | 38.64402 | -9.06378 | 13815 ft | 367 kts | 203° |
| 2026-05-04 06:44 | 38.62032 | -9.07646 | 14480 ft | 371 kts | 203° |
| 2026-05-04 06:45 | 38.59653 | -9.08916 | 15133 ft | 374 kts | 203° |
| 2026-05-04 06:45 | 38.57225 | -9.10211 | 15789 ft | 378 kts | 203° |
| 2026-05-04 06:45 | 38.54786 | -9.11512 | 16413 ft | 382 kts | 203° |
| 2026-05-04 06:45 | 38.52325 | -9.12822 | 17031 ft | 385 kts | 203° |
| 2026-05-04 06:46 | 38.49842 | -9.14145 | 17625 ft | 388 kts | 203° |
| 2026-05-04 06:46 | 38.47334 | -9.15479 | 18209 ft | 392 kts | 203° |
| 2026-05-04 06:46 | 38.44805 | -9.16824 | 18769 ft | 396 kts | 203° |
| 2026-05-04 06:46 | 38.42260 | -9.18199 | 19302 ft | 399 kts | 206° |
| 2026-05-04 06:48 | 38.26411 | -9.33530 | 22797 ft | 420 kts | 218° |
| 2026-05-04 06:48 | 38.24085 | -9.35794 | 23239 ft | 422 kts | 217° |
| 2026-05-04 06:49 | 38.21744 | -9.38066 | 23669 ft | 425 kts | 217° |
| 2026-05-04 06:50 | 38.04907 | -9.54353 | 26359 ft | 443 kts | 217° |
| 2026-05-04 06:51 | 38.02446 | -9.56727 | 26701 ft | 446 kts | 217° |
| 2026-05-04 06:51 | 37.99973 | -9.59109 | 27032 ft | 448 kts | 217° |
| 2026-05-04 06:51 | 37.97523 | -9.61567 | 27353 ft | 450 kts | 219° |
| 2026-05-04 06:51 | 37.95122 | -9.64122 | 27666 ft | 452 kts | 220° |
| 2026-05-04 06:52 | 37.92693 | -9.66762 | 27975 ft | 454 kts | 221° |
| 2026-05-04 06:52 | 37.90292 | -9.69373 | 28276 ft | 457 kts | 221° |
| 2026-05-04 06:52 | 37.87869 | -9.71991 | 28564 ft | 458 kts | 220° |
| 2026-05-04 06:52 | 37.85437 | -9.74599 | 28926 ft | 458 kts | 220° |
| 2026-05-04 06:53 | 37.83001 | -9.77196 | 29347 ft | 457 kts | 220° |
| 2026-05-04 06:53 | 37.80575 | -9.79773 | 29771 ft | 455 kts | 220° |
| 2026-05-04 06:53 | 37.78151 | -9.82342 | 30169 ft | 454 kts | 220° |
| 2026-05-04 06:53 | 37.75734 | -9.84902 | 30518 ft | 454 kts | 220° |
| 2026-05-04 06:54 | 37.73315 | -9.87463 | 30856 ft | 453 kts | 220° |
| 2026-05-04 06:54 | 37.70900 | -9.90019 | 31213 ft | 452 kts | 220° |
| 2026-05-04 06:54 | 37.68491 | -9.92567 | 31566 ft | 451 kts | 220° |
| 2026-05-04 06:54 | 37.66087 | -9.95107 | 31903 ft | 451 kts | 220° |
| 2026-05-04 06:55 | 37.63681 | -9.97646 | 32224 ft | 450 kts | 220° |
| 2026-05-04 06:55 | 37.61258 | -10.00145 | 32545 ft | 450 kts | 218° |
| 2026-05-04 06:55 | 37.58754 | -10.02501 | 32863 ft | 449 kts | 216° |
| 2026-05-04 06:55 | 37.56208 | -10.04779 | 33177 ft | 448 kts | 215° |
| 2026-05-04 06:56 | 37.53653 | -10.07027 | 33475 ft | 448 kts | 215° |
| 2026-05-04 06:57 | 37.35945 | -10.22799 | 35003 ft | 448 kts | 216° |
| 2026-05-04 06:58 | 37.30885 | -10.27333 | 34986 ft | 444 kts | 216° |
| 2026-05-04 06:58 | 37.25881 | -10.31807 | 35008 ft | 441 kts | 216° |
| 2026-05-04 06:59 | 37.20890 | -10.36262 | 35008 ft | 440 kts | 216° |
| 2026-05-04 06:59 | 37.15893 | -10.40715 | 35002 ft | 441 kts | 216° |
| 2026-05-04 07:01 | 36.95848 | -10.58499 | 35002 ft | 442 kts | 215° |
| 2026-05-04 07:02 | 36.90820 | -10.62943 | 35003 ft | 443 kts | 215° |
| 2026-05-04 07:02 | 36.85784 | -10.67386 | 35002 ft | 443 kts | 215° |
| 2026-05-04 07:03 | 36.80740 | -10.71828 | 35010 ft | 444 kts | 215° |
| 2026-05-04 07:03 | 36.75695 | -10.76264 | 35002 ft | 444 kts | 215° |
| 2026-05-04 07:04 | 36.70644 | -10.80698 | 35003 ft | 444 kts | 215° |
| 2026-05-04 07:04 | 36.65593 | -10.85125 | 35001 ft | 444 kts | 215° |
| 2026-05-04 07:05 | 36.60539 | -10.89547 | 34997 ft | 444 kts | 215° |
| 2026-05-04 07:05 | 36.55482 | -10.93964 | 34997 ft | 444 kts | 215° |
| 2026-05-04 07:06 | 36.47905 | -11.00570 | 35003 ft | 443 kts | 215° |
| 2026-05-04 07:07 | 36.42851 | -11.04967 | 34999 ft | 443 kts | 215° |
| 2026-05-04 07:09 | 36.22627 | -11.22492 | 34997 ft | 442 kts | 215° |
| 2026-05-04 07:09 | 36.18429 | -11.26115 | 34997 ft | 442 kts | 215° |
| 2026-05-04 07:10 | 36.13383 | -11.30465 | 35006 ft | 442 kts | 215° |
| 2026-05-04 07:12 | 35.93203 | -11.47836 | 35001 ft | 442 kts | 216° |
| 2026-05-04 07:12 | 35.88199 | -11.52246 | 35008 ft | 442 kts | 216° |
| 2026-05-04 07:13 | 35.83195 | -11.56656 | 35000 ft | 442 kts | 216° |
| 2026-05-04 07:13 | 35.78186 | -11.61054 | 35001 ft | 442 kts | 216° |
| 2026-05-04 07:14 | 35.65606 | -11.72051 | 34998 ft | 443 kts | 216° |
| 2026-05-04 07:15 | 35.60583 | -11.76429 | 35000 ft | 443 kts | 216° |
| 2026-05-04 07:15 | 35.55557 | -11.80804 | 35002 ft | 443 kts | 216° |
| 2026-05-04 07:16 | 35.50531 | -11.85172 | 34999 ft | 443 kts | 216° |
| 2026-05-04 07:16 | 35.45502 | -11.89535 | 34996 ft | 443 kts | 215° |
| 2026-05-04 07:17 | 35.40474 | -11.93891 | 35002 ft | 443 kts | 215° |
| 2026-05-04 07:17 | 35.35442 | -11.98244 | 35002 ft | 443 kts | 215° |
| 2026-05-04 07:18 | 35.30409 | -12.02590 | 35002 ft | 442 kts | 215° |
| 2026-05-04 07:18 | 35.25379 | -12.06927 | 35000 ft | 442 kts | 215° |
| 2026-05-04 07:19 | 35.20345 | -12.11261 | 35000 ft | 442 kts | 215° |
| 2026-05-04 07:19 | 35.15314 | -12.15586 | 35000 ft | 442 kts | 215° |
| 2026-05-04 07:20 | 35.10277 | -12.19909 | 35001 ft | 442 kts | 215° |
| 2026-05-04 07:20 | 35.05244 | -12.24223 | 35008 ft | 442 kts | 215° |
| 2026-05-04 07:22 | 34.85090 | -12.41428 | 34996 ft | 442 kts | 215° |
| 2026-05-04 07:23 | 34.80050 | -12.45714 | 35003 ft | 442 kts | 215° |
| 2026-05-04 07:23 | 34.75009 | -12.49995 | 34997 ft | 442 kts | 215° |
| 2026-05-04 07:24 | 34.69964 | -12.54272 | 35000 ft | 442 kts | 215° |
| 2026-05-04 07:24 | 34.64884 | -12.58573 | 34997 ft | 442 kts | 215° |
| 2026-05-04 07:26 | 34.44690 | -12.75605 | 35006 ft | 442 kts | 215° |
| 2026-05-04 07:27 | 34.39638 | -12.79851 | 35006 ft | 442 kts | 215° |
| 2026-05-04 07:27 | 34.34584 | -12.84092 | 35001 ft | 442 kts | 215° |
| 2026-05-04 07:28 | 34.29530 | -12.88328 | 35006 ft | 442 kts | 215° |
| 2026-05-04 07:28 | 34.24473 | -12.92562 | 35009 ft | 442 kts | 215° |
| 2026-05-04 07:29 | 34.19427 | -12.96813 | 35002 ft | 442 kts | 215° |
| 2026-05-04 07:29 | 34.14388 | -13.01061 | 35006 ft | 442 kts | 215° |
| 2026-05-04 07:30 | 34.09343 | -13.05306 | 35002 ft | 442 kts | 215° |
| 2026-05-04 07:30 | 34.04297 | -13.09543 | 35000 ft | 442 kts | 215° |
| 2026-05-04 07:31 | 33.99251 | -13.13774 | 34999 ft | 442 kts | 215° |
| 2026-05-04 07:33 | 33.79052 | -13.30648 | 34998 ft | 442 kts | 215° |
| 2026-05-04 07:33 | 33.74000 | -13.34853 | 35000 ft | 442 kts | 215° |
| 2026-05-04 07:34 | 33.68946 | -13.39053 | 35006 ft | 442 kts | 215° |
| 2026-05-04 07:34 | 33.63892 | -13.43248 | 35001 ft | 442 kts | 215° |
| 2026-05-04 07:35 | 33.58833 | -13.47440 | 34997 ft | 442 kts | 215° |
| 2026-05-04 07:35 | 33.53777 | -13.51624 | 35007 ft | 442 kts | 215° |
| 2026-05-04 07:36 | 33.48718 | -13.55804 | 35004 ft | 442 kts | 215° |
| 2026-05-04 07:38 | 33.28470 | -13.72476 | 34997 ft | 442 kts | 214° |
| 2026-05-04 07:38 | 33.23408 | -13.76629 | 35000 ft | 442 kts | 214° |
| 2026-05-04 07:39 | 33.18341 | -13.80782 | 35002 ft | 442 kts | 214° |
| 2026-05-04 07:39 | 33.13272 | -13.84926 | 35003 ft | 442 kts | 214° |
| 2026-05-04 07:40 | 33.08195 | -13.89049 | 34996 ft | 442 kts | 214° |
| 2026-05-04 07:40 | 33.03113 | -13.93167 | 34999 ft | 442 kts | 214° |
| 2026-05-04 07:41 | 32.98034 | -13.97279 | 35003 ft | 442 kts | 214° |
| 2026-05-04 07:41 | 32.92954 | -14.01389 | 34999 ft | 441 kts | 214° |
| 2026-05-04 07:42 | 32.87870 | -14.05497 | 35002 ft | 441 kts | 214° |
| 2026-05-04 07:42 | 32.82789 | -14.09596 | 35004 ft | 441 kts | 214° |
| 2026-05-04 07:43 | 32.77705 | -14.13692 | 35004 ft | 441 kts | 214° |
| 2026-05-04 07:43 | 32.72619 | -14.17784 | 35000 ft | 441 kts | 214° |
| 2026-05-04 07:44 | 32.67530 | -14.21873 | 35003 ft | 441 kts | 214° |
| 2026-05-04 07:44 | 32.62444 | -14.25954 | 35001 ft | 441 kts | 214° |
| 2026-05-04 07:45 | 32.58183 | -14.29368 | 34996 ft | 441 kts | 214° |
| 2026-05-04 07:45 | 32.53090 | -14.33443 | 35002 ft | 441 kts | 214° |
| 2026-05-04 07:46 | 32.48001 | -14.37510 | 34997 ft | 441 kts | 214° |
| 2026-05-04 07:46 | 32.42908 | -14.41575 | 35008 ft | 441 kts | 214° |
| 2026-05-04 07:47 | 32.37815 | -14.45633 | 34996 ft | 441 kts | 214° |
| 2026-05-04 07:49 | 32.17434 | -14.61820 | 35000 ft | 441 kts | 214° |
| 2026-05-04 07:49 | 32.12337 | -14.65854 | 35001 ft | 441 kts | 214° |
| 2026-05-04 07:50 | 32.07238 | -14.69884 | 35002 ft | 441 kts | 214° |
| 2026-05-04 07:50 | 32.02137 | -14.73910 | 34998 ft | 441 kts | 214° |
| 2026-05-04 07:51 | 31.97032 | -14.77934 | 35007 ft | 441 kts | 214° |
| 2026-05-04 07:51 | 31.91930 | -14.81950 | 35007 ft | 441 kts | 214° |
| 2026-05-04 07:52 | 31.86826 | -14.85963 | 35004 ft | 441 kts | 214° |
| 2026-05-04 07:52 | 31.81689 | -14.89995 | 34997 ft | 441 kts | 214° |
| 2026-05-04 07:54 | 31.61279 | -15.05964 | 35009 ft | 441 kts | 214° |
| 2026-05-04 07:55 | 31.56167 | -15.09950 | 35001 ft | 441 kts | 214° |
| 2026-05-04 07:55 | 31.51057 | -15.13930 | 35007 ft | 441 kts | 214° |
| 2026-05-04 07:56 | 31.45960 | -15.17894 | 35000 ft | 441 kts | 214° |
| 2026-05-04 07:56 | 31.40847 | -15.21866 | 35002 ft | 441 kts | 214° |
| 2026-05-04 07:57 | 31.35700 | -15.25860 | 35004 ft | 441 kts | 214° |
| 2026-05-04 07:57 | 31.30587 | -15.29821 | 35000 ft | 441 kts | 213° |
| 2026-05-04 07:58 | 31.25335 | -15.33434 | 35006 ft | 441 kts | 208° |
| 2026-05-04 07:58 | 31.19920 | -15.36800 | 35003 ft | 441 kts | 208° |
| 2026-05-04 07:59 | 31.14505 | -15.40170 | 35002 ft | 441 kts | 208° |
| 2026-05-04 07:59 | 31.09112 | -15.43574 | 35004 ft | 441 kts | 208° |
| 2026-05-04 08:00 | 31.03721 | -15.46997 | 35007 ft | 441 kts | 209° |
| 2026-05-04 08:02 | 30.82172 | -15.60652 | 35007 ft | 441 kts | 208° |
| 2026-05-04 08:02 | 30.76745 | -15.64079 | 34996 ft | 441 kts | 208° |
| 2026-05-04 08:03 | 30.71357 | -15.67477 | 35003 ft | 441 kts | 208° |
| 2026-05-04 08:03 | 30.65963 | -15.70874 | 35005 ft | 441 kts | 208° |
| 2026-05-04 08:04 | 30.60574 | -15.74264 | 35004 ft | 441 kts | 208° |
| 2026-05-04 08:04 | 30.55179 | -15.77653 | 35005 ft | 441 kts | 208° |
| 2026-05-04 08:05 | 30.49789 | -15.81035 | 35003 ft | 441 kts | 208° |
| 2026-05-04 08:05 | 30.44392 | -15.84417 | 35005 ft | 441 kts | 208° |
| 2026-05-04 08:06 | 30.39003 | -15.87790 | 35009 ft | 441 kts | 208° |
| 2026-05-04 08:06 | 30.33609 | -15.91161 | 35001 ft | 440 kts | 208° |
| 2026-05-04 08:08 | 30.12030 | -16.04607 | 34996 ft | 440 kts | 208° |
| 2026-05-04 08:11 | 29.87746 | -16.19659 | 34997 ft | 440 kts | 208° |
| 2026-05-04 08:11 | 29.79647 | -16.24660 | 35004 ft | 440 kts | 208° |
| 2026-05-04 08:12 | 29.74245 | -16.27991 | 35007 ft | 440 kts | 208° |
| 2026-05-04 08:12 | 29.68848 | -16.31315 | 35007 ft | 440 kts | 208° |
| 2026-05-04 08:13 | 29.63449 | -16.34638 | 35007 ft | 440 kts | 208° |
| 2026-05-04 08:13 | 29.58099 | -16.38055 | 34984 ft | 440 kts | 216° |
| 2026-05-04 08:14 | 29.53331 | -16.42440 | 34998 ft | 439 kts | 220° |
| 2026-05-04 08:14 | 29.51024 | -16.44715 | 34770 ft | 435 kts | 221° |
| 2026-05-04 08:16 | 29.35437 | -16.59624 | 32291 ft | 406 kts | 219° |
| 2026-05-04 08:16 | 29.33260 | -16.61668 | 31912 ft | 403 kts | 219° |
| 2026-05-04 08:16 | 29.31095 | -16.63699 | 31535 ft | 401 kts | 219° |
| 2026-05-04 08:17 | 29.28945 | -16.65716 | 31165 ft | 398 kts | 219° |
| 2026-05-04 08:17 | 29.26806 | -16.67721 | 30789 ft | 396 kts | 219° |
| 2026-05-04 08:17 | 29.24682 | -16.69712 | 30422 ft | 394 kts | 219° |
| 2026-05-04 08:17 | 29.22571 | -16.71689 | 30056 ft | 391 kts | 219° |
| 2026-05-04 08:19 | 29.08148 | -16.85173 | 27426 ft | 374 kts | 219° |
| 2026-05-04 08:19 | 29.06131 | -16.87054 | 27057 ft | 372 kts | 219° |
| 2026-05-04 08:20 | 29.04138 | -16.88913 | 26688 ft | 370 kts | 219° |
| 2026-05-04 08:20 | 29.02124 | -16.90789 | 26312 ft | 368 kts | 219° |
| 2026-05-04 08:20 | 29.00814 | -16.92009 | 26076 ft | 366 kts | 219° |
| 2026-05-04 08:20 | 28.98847 | -16.93841 | 25712 ft | 364 kts | 219° |
| 2026-05-04 08:21 | 28.96888 | -16.95664 | 25345 ft | 362 kts | 219° |
| 2026-05-04 08:21 | 28.94313 | -16.98059 | 24873 ft | 359 kts | 219° |
| 2026-05-04 08:21 | 28.93007 | -16.99273 | 24628 ft | 358 kts | 219° |
| 2026-05-04 08:21 | 28.91083 | -17.01061 | 24273 ft | 356 kts | 219° |
| 2026-05-04 08:22 | 28.89169 | -17.02839 | 23919 ft | 354 kts | 219° |
| 2026-05-04 08:22 | 28.87267 | -17.04605 | 23566 ft | 352 kts | 219° |
| 2026-05-04 08:24 | 28.74224 | -17.16690 | 21133 ft | 339 kts | 219° |
| 2026-05-04 08:24 | 28.72401 | -17.18376 | 20785 ft | 337 kts | 219° |
| 2026-05-04 08:24 | 28.70585 | -17.20055 | 20452 ft | 335 kts | 219° |
| 2026-05-04 08:24 | 28.68780 | -17.21722 | 20109 ft | 333 kts | 219° |
| 2026-05-04 08:25 | 28.66983 | -17.23382 | 19778 ft | 332 kts | 219° |
| 2026-05-04 08:25 | 28.65197 | -17.25031 | 19443 ft | 330 kts | 219° |
| 2026-05-04 08:25 | 28.63418 | -17.26673 | 19108 ft | 328 kts | 219° |
| 2026-05-04 08:25 | 28.61647 | -17.28306 | 18775 ft | 327 kts | 219° |
| 2026-05-04 08:26 | 28.59886 | -17.29930 | 18439 ft | 325 kts | 219° |
| 2026-05-04 08:27 | 28.47774 | -17.41067 | 16147 ft | 314 kts | 216° |
| 2026-05-04 08:28 | 28.45818 | -17.42117 | 15798 ft | 313 kts | 191° |
| 2026-05-04 08:28 | 28.43666 | -17.42114 | 15506 ft | 311 kts | 167° |
| 2026-05-04 08:28 | 28.41704 | -17.41137 | 15198 ft | 309 kts | 144° |
| 2026-05-04 08:28 | 28.40203 | -17.39417 | 14878 ft | 307 kts | 123° |
| 2026-05-04 08:29 | 28.39103 | -17.37348 | 14587 ft | 305 kts | 120° |
| 2026-05-04 08:29 | 28.38052 | -17.35257 | 14266 ft | 305 kts | 120° |
| 2026-05-04 08:29 | 28.36997 | -17.33175 | 13948 ft | 303 kts | 120° |
| 2026-05-04 08:31 | 28.29705 | -17.19107 | 11958 ft | 290 kts | 121° |
| 2026-05-04 08:33 | 28.22100 | -17.05692 | 10078 ft | 290 kts | 125° |
| 2026-05-04 08:33 | 28.20951 | -17.03828 | 9822 ft | 287 kts | 125° |
| 2026-05-04 08:35 | 28.11027 | -16.94525 | 8170 ft | 264 kts | 159° |
| 2026-05-04 08:35 | 28.09328 | -16.93775 | 7949 ft | 261 kts | 159° |
| 2026-05-04 08:35 | 28.07646 | -16.93030 | 7718 ft | 259 kts | 159° |
| 2026-05-04 08:35 | 28.05966 | -16.92283 | 7430 ft | 259 kts | 159° |
| 2026-05-04 08:37 | 27.98656 | -16.97139 | 6488 ft | 240 kts | 248° |
| 2026-05-04 08:37 | 27.98017 | -16.98890 | 6366 ft | 241 kts | 248° |
| 2026-05-04 08:37 | 27.97378 | -17.00643 | 6258 ft | 241 kts | 248° |
| 2026-05-04 08:38 | 27.96727 | -17.02395 | 6142 ft | 242 kts | 247° |
| 2026-05-04 08:38 | 27.96072 | -17.04146 | 6027 ft | 242 kts | 247° |
| 2026-05-04 08:38 | 27.95415 | -17.05894 | 5911 ft | 242 kts | 247° |
| 2026-05-04 08:40 | 27.88824 | -17.14938 | 5127 ft | 233 kts | 162° |
| 2026-05-04 08:40 | 27.87317 | -17.14282 | 5025 ft | 233 kts | 158° |
| 2026-05-04 08:40 | 27.85865 | -17.13468 | 4892 ft | 234 kts | 142° |
| 2026-05-04 08:41 | 27.84904 | -17.12011 | 4788 ft | 234 kts | 109° |
| 2026-05-04 08:41 | 27.84776 | -17.10201 | 4687 ft | 234 kts | 78° |
| 2026-05-04 08:41 | 27.85304 | -17.08471 | 4597 ft | 234 kts | 66° |
| 2026-05-04 08:41 | 27.85967 | -17.06758 | 4482 ft | 236 kts | 66° |
| 2026-05-04 08:42 | 27.86625 | -17.05051 | 4360 ft | 238 kts | 66° |
| 2026-05-04 08:42 | 27.87286 | -17.03329 | 4251 ft | 240 kts | 66° |
| 2026-05-04 08:42 | 27.87947 | -17.01594 | 4139 ft | 241 kts | 66° |
| 2026-05-04 08:42 | 27.88600 | -16.99868 | 4002 ft | 237 kts | 66° |
| 2026-05-04 08:43 | 27.89242 | -16.98166 | 3890 ft | 233 kts | 66° |
| 2026-05-04 08:43 | 27.89875 | -16.96484 | 3787 ft | 233 kts | 66° |
| 2026-05-04 08:43 | 27.90509 | -16.94796 | 3681 ft | 233 kts | 67° |
| 2026-05-04 08:43 | 27.91145 | -16.93104 | 3569 ft | 234 kts | 67° |
| 2026-05-04 08:44 | 27.91775 | -16.91426 | 3497 ft | 230 kts | 67° |
| 2026-05-04 08:44 | 27.92394 | -16.89779 | 3385 ft | 226 kts | 67° |
| 2026-05-04 08:46 | 27.96981 | -16.78691 | 2605 ft | 205 kts | 65° |
| 2026-05-04 08:46 | 27.97544 | -16.77210 | 2513 ft | 205 kts | 68° |
| 2026-05-04 08:46 | 27.98062 | -16.75733 | 2411 ft | 197 kts | 68° |
| 2026-05-04 08:46 | 27.98540 | -16.74347 | 2363 ft | 183 kts | 68° |
| 2026-05-04 08:47 | 27.98996 | -16.73023 | 2311 ft | 179 kts | 68° |
| 2026-05-04 08:47 | 27.99447 | -16.71715 | 2300 ft | 179 kts | 68° |
| 2026-05-04 08:47 | 27.99889 | -16.70432 | 2314 ft | 168 kts | 68° |
| 2026-05-04 08:47 | 28.00300 | -16.69242 | 2162 ft | 155 kts | 68° |
| 2026-05-04 08:48 | 28.00692 | -16.68105 | 1941 ft | 154 kts | 68° |
| 2026-05-04 08:48 | 28.01077 | -16.66990 | 1734 ft | 150 kts | 69° |
| 2026-05-04 08:48 | 28.01455 | -16.65896 | 1536 ft | 150 kts | 68° |
| 2026-05-04 08:48 | 28.01835 | -16.64797 | 1342 ft | 150 kts | 68° |
| 2026-05-04 08:49 | 28.02213 | -16.63701 | 1147 ft | 150 kts | 68° |
| 2026-05-04 08:50 | 28.04404 | -16.57380 | 207 ft | 96 kts | 68° |
| 2026-05-04 08:50 | 28.04569 | -16.56910 | 214 ft | 35 kts | 68° |
| 2026-05-04 08:51 | 28.04633 | -16.56728 | 204 ft | 21 kts | 68° |
| 2026-05-04 08:51 | 28.04698 | -16.56580 | 212 ft | 22 kts | 53° |
| 2026-05-04 08:51 | 28.04802 | -16.56459 | 207 ft | 16 kts | 43° |
| 2026-05-04 08:51 | 28.04853 | -16.56404 | 208 ft | 1 kts | 44° |
| 2026-05-04 08:52 | 28.04874 | -16.56381 | 212 ft | 7 kts | 44° |
| 2026-05-04 08:52 | 28.04880 | -16.56374 | 209 ft | 2 kts | 44° |
| 2026-05-04 08:52 | 28.04907 | -16.56366 | 209 ft | 7 kts | 353° |
| 2026-05-04 08:52 | 28.04925 | -16.56422 | 208 ft | 11 kts | 260° |
| 2026-05-04 08:53 | 28.04893 | -16.56523 | 215 ft | 16 kts | 248° |
| 2026-05-04 08:54 | 28.04563 | -16.57446 | 207 ft | 20 kts | 248° |
| 2026-05-04 08:55 | 28.04511 | -16.57599 | 203 ft | 15 kts | 249° |
| 2026-05-04 08:55 | 28.04532 | -16.57685 | 199 ft | 14 kts | 331° |
| 2026-05-04 08:55 | 28.04618 | -16.57700 | 205 ft | 8 kts | 7° |
| 2026-05-04 08:55 | 28.04648 | -16.57703 | 200 ft | 5 kts | 331° |
| 2026-05-04 08:57 | 28.04703 | -16.57737 | 206 ft | 0 kts | 351° |